Time;durP1;ratioP1;P1;durP2;ratioP2;P2;SDS_P1;SDS_P2;PMS_P1;PMS_P2;Temp;Humidity;BMP_temperature;BMP_pressure;BME280_temperature;BME280_humidity;BME280_pressure;Samples;Min_cycle;Max_cycle;Signal;HPM_P1;HPM_P2
2021/12/22 00:02:04;;;;;;;;;117.00;99.50;3.10;63.20;;;;;;5074668;28;8766;-68
2021/12/22 00:04:32;;;;;;;;;159.50;154.75;3.00;63.90;;;;;;5074845;28;8786;-68
2021/12/22 00:06:58;;;;;;;;;151.00;136.75;2.70;64.70;;;;;;5074416;28;8810;-68
2021/12/22 00:09:24;;;;;;;;;128.25;119.75;2.90;64.80;;;;;;5074649;28;8875;-69
2021/12/22 00:11:49;;;;;;;;;144.25;139.00;3.00;64.30;;;;;;5074508;28;8796;-70
2021/12/22 00:14:16;;;;;;;;;141.75;139.00;3.20;63.20;;;;;;5074551;28;8770;-69
2021/12/22 00:16:42;;;;;;;;;134.75;129.75;3.10;63.20;;;;;;5074499;28;8778;-69
2021/12/22 00:19:08;;;;;;;;;152.50;140.50;3.10;63.30;;;;;;5074460;28;8802;-69
2021/12/22 00:21:34;;;;;;;;;151.75;136.00;3.20;62.80;;;;;;5074268;28;9558;-68
2021/12/22 00:24:00;;;;;;;;;170.25;143.75;3.20;62.80;;;;;;5074374;28;8774;-69
2021/12/22 00:26:26;;;;;;;;;149.25;144.00;3.10;63.20;;;;;;5074356;28;8762;-69
2021/12/22 00:28:51;;;;;;;;;158.75;147.00;3.40;62.50;;;;;;5074335;28;8847;-69
2021/12/22 00:31:20;;;;;;;;;176.25;160.00;3.60;61.80;;;;;;5074287;28;8758;-69
2021/12/22 00:33:51;;;;;;;;;163.25;155.25;3.40;62.40;;;;;;5074514;28;8766;-69
2021/12/22 00:36:21;;;;;;;;;171.25;152.00;3.30;62.50;;;;;;5071528;28;8790;-69
2021/12/22 00:38:47;;;;;;;;;156.00;142.00;3.10;63.30;;;;;;5074195;28;8782;-69
2021/12/22 00:41:14;;;;;;;;;153.25;139.75;3.20;63.70;;;;;;5074210;28;8746;-68
2021/12/22 00:43:40;;;;;;;;;132.75;121.00;3.30;63.30;;;;;;5074197;28;8776;-68
2021/12/22 00:46:06;;;;;;;;;131.75;122.00;3.70;62.10;;;;;;5074122;28;8770;-68
2021/12/22 00:48:32;;;;;;;;;121.50;112.75;3.60;61.50;;;;;;5072977;28;8794;-68
2021/12/22 00:50:59;;;;;;;;;105.00;94.00;3.30;62.70;;;;;;5073018;28;8777;-68
2021/12/22 00:53:24;;;;;;;;;106.25;93.50;3.60;62.50;;;;;;5074113;28;8759;-68
2021/12/22 00:55:51;;;;;;;;;122.00;108.00;3.50;61.80;;;;;;5074104;28;8839;-68
2021/12/22 00:58:17;;;;;;;;;102.75;91.00;3.60;61.70;;;;;;5072997;28;8773;-69
2021/12/22 01:00:46;;;;;;;;;93.50;79.25;3.60;61.40;;;;;;5076714;28;8876;-68
2021/12/22 01:03:20;;;;;;;;;99.25;85.75;3.60;60.60;;;;;;5078541;28;8772;-68
2021/12/22 01:05:46;;;;;;;;;104.75;88.25;3.70;60.30;;;;;;5078021;28;8797;-68
2021/12/22 01:08:12;;;;;;;;;110.75;101.00;3.90;60.00;;;;;;5077880;28;8794;-68
2021/12/22 01:10:38;;;;;;;;;109.25;104.50;3.70;59.50;;;;;;5078188;28;8754;-68
2021/12/22 01:13:07;;;;;;;;;109.00;100.25;3.50;60.90;;;;;;5078117;28;8782;-68
2021/12/22 01:15:35;;;;;;;;;109.25;102.00;3.30;61.80;;;;;;5077842;28;8770;-69
2021/12/22 01:18:09;;;;;;;;;116.75;112.25;3.20;62.70;;;;;;5077739;28;8766;-68
2021/12/22 01:20:50;;;;;;;;;115.75;114.50;3.20;63.00;;;;;;5077739;28;8810;-68
2021/12/22 01:23:19;;;;;;;;;113.75;102.75;3.70;61.40;;;;;;5077707;28;8954;-68
2021/12/22 01:25:47;;;;;;;;;100.00;85.50;4.10;59.80;;;;;;5077631;28;8869;-68
2021/12/22 01:28:14;;;;;;;;;108.00;99.00;3.90;59.90;;;;;;5077562;28;8793;-68
2021/12/22 01:30:45;;;;;;;;;106.75;100.75;3.70;60.50;;;;;;5077513;28;8881;-68
2021/12/22 01:33:12;;;;;;;;;105.00;88.50;3.70;60.50;;;;;;5077527;28;8770;-68
2021/12/22 01:35:39;;;;;;;;;111.75;93.50;3.80;60.40;;;;;;5077405;28;8758;-68
2021/12/22 01:38:06;;;;;;;;;100.75;88.00;3.60;62.20;;;;;;5077407;28;8805;-68
2021/12/22 01:40:34;;;;;;;;;110.00;93.50;3.80;62.80;;;;;;5077291;28;8891;-68
2021/12/22 01:43:02;;;;;;;;;102.25;93.50;3.70;63.90;;;;;;5077360;28;8743;-68
2021/12/22 01:51:54;;;;;;;;;105.00;88.00;3.70;64.70;;;;;;5077289;28;8877;-68
2021/12/22 01:54:19;;;;;;;;;103.00;91.00;3.20;66.80;;;;;;5076394;28;8908;-68
2021/12/22 01:56:47;;;;;;;;;103.25;84.75;3.40;66.30;;;;;;5076945;28;9530;-68
2021/12/22 01:59:14;;;;;;;;;106.25;89.00;3.10;67.40;;;;;;5076845;28;8801;-68
2021/12/22 02:01:41;;;;;;;;;100.00;86.75;3.10;67.70;;;;;;5077225;28;8781;-69
2021/12/22 02:04:10;;;;;;;;;104.25;90.00;3.50;66.20;;;;;;5076911;28;8777;-68
2021/12/22 02:06:44;;;;;;;;;99.50;85.25;3.80;64.60;;;;;;5076734;28;8770;-69
2021/12/22 02:09:13;;;;;;;;;103.25;90.00;3.80;64.60;;;;;;5077101;28;9555;-68
2021/12/22 02:11:39;;;;;;;;;99.00;85.25;3.70;64.30;;;;;;5076521;28;8742;-68
2021/12/22 02:14:06;;;;;;;;;92.25;71.75;3.80;64.10;;;;;;5076734;28;8826;-68
2021/12/22 02:16:37;;;;;;;;;103.25;86.50;3.80;63.40;;;;;;5075637;28;8834;-69
2021/12/22 02:19:07;;;;;;;;;97.00;83.50;3.90;63.70;;;;;;5076614;28;8852;-68
2021/12/22 02:21:39;;;;;;;;;99.50;87.00;4.20;62.70;;;;;;5075596;28;8793;-69
2021/12/22 02:24:05;;;;;;;;;97.00;84.00;4.20;62.50;;;;;;5076576;28;8774;-68
2021/12/22 02:26:43;;;;;;;;;100.00;81.75;4.10;62.30;;;;;;5076486;28;8883;-68
2021/12/22 02:29:19;;;;;;;;;98.25;82.25;3.90;63.30;;;;;;5075502;28;8786;-69
2021/12/22 02:32:03;;;;;;;;;94.25;78.50;3.50;65.10;;;;;;5076749;28;8762;-68
2021/12/22 02:34:38;;;;;;;;;95.00;75.75;3.40;65.50;;;;;;5076394;28;8795;-68
2021/12/22 02:37:10;;;;;;;;;91.50;75.25;3.40;65.40;;;;;;5076603;28;8807;-68
2021/12/22 02:39:36;;;;;;;;;96.50;79.75;3.30;66.20;;;;;;5076272;28;8785;-68
2021/12/22 02:42:02;;;;;;;;;100.00;82.50;3.40;65.70;;;;;;5076187;28;8819;-68
2021/12/22 02:44:28;;;;;;;;;95.75;76.75;3.60;65.90;;;;;;5076402;28;9471;-68
2021/12/22 02:46:54;;;;;;;;;92.25;77.25;3.30;65.70;;;;;;5076071;28;8789;-69
2021/12/22 02:49:20;;;;;;;;;95.00;78.25;3.20;66.40;;;;;;5076225;28;8932;-68
2021/12/22 02:51:46;;;;;;;;;93.25;80.25;3.20;66.60;;;;;;5075974;28;8774;-68
2021/12/22 02:54:18;;;;;;;;;90.00;71.00;3.30;66.30;;;;;;5075918;28;8774;-68
2021/12/22 03:04:34;;;;;;;;;90.75;74.00;3.70;64.20;;;;;;5075833;28;8777;-68
2021/12/22 03:07:06;;;;;;;;;86.75;71.75;4.00;63.30;;;;;;5075682;28;8936;-69
2021/12/22 03:09:35;;;;;;;;;102.50;82.25;3.70;63.70;;;;;;5075944;28;9694;-68
2021/12/22 03:12:04;;;;;;;;;91.50;75.25;3.40;65.60;;;;;;5075586;28;8781;-68
2021/12/22 03:14:30;;;;;;;;;92.25;73.50;3.40;65.90;;;;;;5074524;28;8770;-68
2021/12/22 03:16:57;;;;;;;;;90.50;75.00;3.30;66.10;;;;;;5075536;28;8762;-68
2021/12/22 03:19:26;;;;;;;;;96.00;80.00;3.40;65.60;;;;;;5075580;28;8836;-68
2021/12/22 03:21:59;;;;;;;;;93.50;75.75;3.20;66.60;;;;;;5075014;28;9423;-68
2021/12/22 03:24:26;;;;;;;;;93.25;76.00;3.30;65.90;;;;;;5075239;28;8773;-68
2021/12/22 03:26:52;;;;;;;;;97.00;79.25;3.00;67.20;;;;;;5075565;28;8777;-68
2021/12/22 03:29:19;;;;;;;;;92.75;75.75;3.30;66.70;;;;;;5075236;28;9328;-68
2021/12/22 03:31:47;;;;;;;;;99.50;80.00;3.40;65.50;;;;;;5075148;28;8781;-68
2021/12/22 03:34:14;;;;;;;;;98.50;85.50;3.20;66.30;;;;;;5075155;28;8773;-68
2021/12/22 03:36:43;;;;;;;;;100.50;87.50;3.40;66.00;;;;;;5075107;28;8835;-68
2021/12/22 03:39:11;;;;;;;;;97.25;76.50;3.50;65.50;;;;;;5075073;28;8814;-68
2021/12/22 03:41:37;;;;;;;;;93.25;78.25;3.30;66.10;;;;;;5073961;28;8778;-68
2021/12/22 03:44:05;;;;;;;;;106.00;89.50;3.10;67.40;;;;;;5074917;28;8843;-68
2021/12/22 03:46:31;;;;;;;;;109.00;102.25;3.20;68.00;;;;;;5074903;28;8793;-68
2021/12/22 03:48:58;;;;;;;;;102.50;87.50;3.10;67.50;;;;;;5075017;28;8798;-68
2021/12/22 03:51:26;;;;;;;;;103.25;92.25;2.90;69.00;;;;;;5075025;28;8769;-68
2021/12/22 03:53:52;;;;;;;;;97.25;83.00;3.10;68.00;;;;;;5074771;28;8766;-68
2021/12/22 03:56:18;;;;;;;;;103.50;94.00;3.50;66.70;;;;;;5074774;28;8750;-68
2021/12/22 03:58:44;;;;;;;;;107.00;96.00;3.30;67.30;;;;;;5074560;28;8879;-68
2021/12/22 04:01:10;;;;;;;;;101.75;90.25;3.30;67.40;;;;;;5074832;28;8774;-68
2021/12/22 04:03:37;;;;;;;;;100.50;90.50;3.00;68.50;;;;;;5074671;28;8782;-68
2021/12/22 04:06:04;;;;;;;;;103.00;89.75;2.80;69.40;;;;;;5074589;28;8846;-68
2021/12/22 04:08:30;;;;;;;;;105.25;92.75;2.60;71.20;;;;;;5074483;28;8794;-68
2021/12/22 04:10:56;;;;;;;;;106.25;95.25;2.70;70.90;;;;;;5074712;28;8770;-68
2021/12/22 04:13:22;;;;;;;;;109.75;104.25;2.50;72.00;;;;;;5074477;28;9486;-68
2021/12/22 04:15:48;;;;;;;;;110.25;100.00;2.40;73.00;;;;;;5074455;28;8801;-68
2021/12/22 04:18:15;;;;;;;;;114.00;108.50;2.50;73.20;;;;;;5074257;28;8778;-68
2021/12/22 04:20:41;;;;;;;;;111.50;105.75;2.50;73.50;;;;;;5071441;28;8807;-68
2021/12/22 04:23:07;;;;;;;;;131.75;121.75;2.40;74.20;;;;;;5059689;28;8818;-68
2021/12/22 04:25:34;;;;;;;;;130.00;127.75;2.60;73.00;;;;;;5069769;28;8779;-68
2021/12/22 04:28:05;;;;;;;;;143.75;130.25;2.60;73.20;;;;;;5054556;28;8783;-68
2021/12/22 04:30:33;;;;;;;;;160.50;143.50;2.60;72.90;;;;;;5054243;28;8793;-68
2021/12/22 04:33:00;;;;;;;;;166.00;148.50;2.70;72.00;;;;;;5054395;28;9481;-68
2021/12/22 04:35:27;;;;;;;;;148.50;137.00;2.80;70.90;;;;;;5054174;28;8763;-68
2021/12/22 04:37:53;;;;;;;;;153.00;143.00;3.20;69.30;;;;;;5054163;28;8775;-68
2021/12/22 04:40:18;;;;;;;;;139.50;137.00;3.20;68.20;;;;;;5054267;28;8892;-68
2021/12/22 04:42:45;;;;;;;;;157.50;140.25;3.00;68.30;;;;;;5054072;28;9912;-69
2021/12/22 04:45:11;;;;;;;;;137.75;134.25;3.00;67.50;;;;;;5054104;28;9629;-68
2021/12/22 04:47:38;;;;;;;;;137.00;128.50;2.80;67.80;;;;;;5054303;28;8797;-68
2021/12/22 04:50:10;;;;;;;;;125.50;118.00;2.80;68.10;;;;;;5054485;28;8844;-68
2021/12/22 04:52:44;;;;;;;;;135.25;128.25;3.10;66.40;;;;;;5054187;28;8771;-68
2021/12/22 04:55:10;;;;;;;;;130.25;124.75;3.30;65.40;;;;;;5054381;28;8793;-68
2021/12/22 04:57:36;;;;;;;;;132.50;125.00;3.00;66.20;;;;;;5054310;28;8759;-68
2021/12/22 05:00:07;;;;;;;;;122.50;117.00;3.10;65.90;;;;;;5054188;28;8870;-68
2021/12/22 05:02:32;;;;;;;;;118.50;113.00;3.10;65.70;;;;;;5054267;28;9554;-68
2021/12/22 05:04:58;;;;;;;;;126.50;122.50;3.10;65.90;;;;;;5053939;28;8771;-68
2021/12/22 05:07:24;;;;;;;;;132.50;129.75;3.20;65.30;;;;;;5053799;28;8811;-68
2021/12/22 05:09:50;;;;;;;;;170.00;147.75;2.80;65.90;;;;;;5053990;28;8786;-68
2021/12/22 05:12:16;;;;;;;;;155.25;138.00;2.40;68.00;;;;;;5053993;28;8786;-68
2021/12/22 05:14:44;;;;;;;;;141.50;136.25;2.30;69.10;;;;;;5053978;28;8775;-68
2021/12/22 05:17:18;;;;;;;;;154.25;135.25;2.60;67.70;;;;;;5054185;28;9112;-68
2021/12/22 05:19:44;;;;;;;;;148.75;142.25;2.80;66.40;;;;;;5054353;28;8857;-68
2021/12/22 05:22:09;;;;;;;;;149.50;138.25;2.60;66.60;;;;;;5062123;28;9398;-68
2021/12/22 05:24:35;;;;;;;;;144.50;132.00;2.60;66.80;;;;;;5067496;28;8819;-68
2021/12/22 05:27:01;;;;;;;;;149.00;144.00;2.50;67.20;;;;;;5053863;28;8763;-68
2021/12/22 05:29:27;;;;;;;;;128.00;126.00;2.60;66.90;;;;;;5062753;28;8788;-68
2021/12/22 05:31:55;;;;;;;;;132.00;128.50;3.10;65.30;;;;;;5074023;28;8761;-68
2021/12/22 05:34:21;;;;;;;;;156.25;136.25;3.10;64.20;;;;;;5073811;28;8888;-68
2021/12/22 05:36:47;;;;;;;;;150.25;134.75;2.90;64.40;;;;;;5073729;28;8791;-68
2021/12/22 05:39:13;;;;;;;;;135.00;129.25;2.90;64.10;;;;;;5067499;28;8812;-68
2021/12/22 05:41:38;;;;;;;;;144.75;142.50;2.90;64.80;;;;;;5066518;28;8772;-67
2021/12/22 05:44:04;;;;;;;;;172.00;157.00;2.80;65.50;;;;;;5062940;28;8779;-68
2021/12/22 05:46:31;;;;;;;;;161.00;157.25;2.50;67.20;;;;;;5061718;28;8779;-67
2021/12/22 05:48:57;;;;;;;;;159.50;145.50;2.60;67.30;;;;;;5059916;28;8796;-68
2021/12/22 05:51:23;;;;;;;;;143.25;129.00;2.60;67.50;;;;;;5066069;28;8795;-68
2021/12/22 05:53:49;;;;;;;;;132.75;124.50;2.60;67.40;;;;;;5057483;28;8755;-68
2021/12/22 05:56:14;;;;;;;;;130.00;122.00;2.50;68.70;;;;;;5057156;28;8867;-71
2021/12/22 05:58:40;;;;;;;;;130.75;116.50;2.40;69.60;;;;;;5057052;28;8763;-68
2021/12/22 06:01:06;;;;;;;;;109.00;105.50;2.30;70.40;;;;;;5057037;28;8832;-68
2021/12/22 06:03:32;;;;;;;;;133.75;124.25;2.30;70.90;;;;;;5056982;28;8790;-68
2021/12/22 06:05:58;;;;;;;;;132.75;129.00;2.60;69.40;;;;;;5058064;28;8786;-67
2021/12/22 06:08:23;;;;;;;;;133.50;121.25;2.50;70.10;;;;;;5067654;28;8819;-66
2021/12/22 06:10:49;;;;;;;;;114.00;109.75;3.00;67.90;;;;;;5056542;28;8901;-66
2021/12/22 06:13:15;;;;;;;;;125.75;116.25;3.10;66.70;;;;;;5056781;28;8785;-64
2021/12/22 06:15:41;;;;;;;;;112.00;108.50;3.20;66.40;;;;;;5056668;28;8763;-65
2021/12/22 06:18:08;;;;;;;;;114.00;111.00;3.50;65.50;;;;;;5056942;28;9405;-65
2021/12/22 06:20:35;;;;;;;;;115.25;110.00;3.80;64.20;;;;;;5056441;28;8858;-66
2021/12/22 06:23:01;;;;;;;;;108.50;99.50;4.00;62.90;;;;;;5056828;28;8770;-65
2021/12/22 06:25:27;;;;;;;;;105.00;94.75;3.80;62.90;;;;;;5056526;28;8783;-65
2021/12/22 06:27:53;;;;;;;;;109.75;96.00;3.60;63.70;;;;;;5056286;28;8771;-65
2021/12/22 06:30:20;;;;;;;;;110.50;104.00;4.00;62.80;;;;;;5056436;28;8802;-65
2021/12/22 06:32:49;;;;;;;;;123.75;118.00;4.20;61.70;;;;;;5056236;28;8771;-65
2021/12/22 06:35:16;;;;;;;;;111.75;105.75;4.10;61.80;;;;;;5056287;28;8767;-66
2021/12/22 06:37:46;;;;;;;;;119.25;115.00;4.10;62.10;;;;;;5056302;28;8779;-64
2021/12/22 06:40:12;;;;;;;;;112.00;107.50;4.30;61.80;;;;;;5056493;28;8802;-64
2021/12/22 06:42:40;;;;;;;;;123.75;118.00;4.50;61.10;;;;;;5056195;28;8893;-65
2021/12/22 06:45:08;;;;;;;;;129.75;122.50;4.70;60.30;;;;;;5056079;28;8767;-67
2021/12/22 06:47:34;;;;;;;;;128.50;125.00;4.60;60.90;;;;;;5069079;28;8823;-66
2021/12/22 06:50:00;;;;;;;;;176.75;169.50;4.70;60.40;;;;;;5076498;28;8804;-66
2021/12/22 06:52:26;;;;;;;;;194.50;173.25;4.40;60.60;;;;;;5076073;28;8775;-64
2021/12/22 06:54:52;;;;;;;;;162.50;156.25;4.10;61.30;;;;;;5076061;28;8838;-66
2021/12/22 06:57:20;;;;;;;;;157.00;153.75;4.10;62.10;;;;;;5074903;28;8768;-64
2021/12/22 06:59:47;;;;;;;;;150.75;145.50;4.20;61.60;;;;;;5075768;28;9492;-65
2021/12/22 07:02:13;;;;;;;;;143.00;134.25;4.40;61.10;;;;;;5075861;28;8862;-64
2021/12/22 07:04:39;;;;;;;;;152.00;148.25;4.40;61.00;;;;;;5076009;28;8775;-65
2021/12/22 07:07:04;;;;;;;;;150.75;149.75;4.60;60.70;;;;;;5075519;28;8824;-65
2021/12/22 07:09:30;;;;;;;;;187.00;173.25;4.70;60.40;;;;;;5076021;28;8768;-66
2021/12/22 07:11:56;;;;;;;;;204.00;180.50;4.30;61.70;;;;;;5075977;28;8772;-64
2021/12/22 07:14:22;;;;;;;;;200.50;178.00;4.50;60.50;;;;;;5075614;28;8772;-65
2021/12/22 07:16:48;;;;;;;;;198.75;179.50;4.70;60.20;;;;;;5075681;28;8779;-65
2021/12/22 07:19:14;;;;;;;;;162.50;153.25;4.60;60.10;;;;;;5075645;28;9439;-65
2021/12/22 07:21:40;;;;;;;;;190.50;168.50;4.70;60.00;;;;;;5075796;28;8761;-65
2021/12/22 07:24:07;;;;;;;;;201.50;182.25;4.50;60.20;;;;;;5075432;28;9488;-66
2021/12/22 07:26:33;;;;;;;;;166.25;157.75;4.60;60.10;;;;;;5075361;28;8899;-68
2021/12/22 07:28:59;;;;;;;;;163.50;138.50;4.70;59.40;;;;;;5075621;28;9450;-69
2021/12/22 07:31:25;;;;;;;;;171.25;146.25;4.90;58.80;;;;;;5075047;28;8776;-69
2021/12/22 07:34:10;;;;;;;;;152.00;139.50;4.90;59.10;;;;;;5075292;28;8782;-72
2021/12/22 07:36:47;;;;;;;;;151.50;136.00;4.80;59.20;;;;;;5075538;28;8843;-71
2021/12/22 07:39:13;;;;;;;;;138.25;125.00;4.60;59.90;;;;;;5075178;28;8796;-70
2021/12/22 07:41:39;;;;;;;;;150.00;135.75;4.70;59.50;;;;;;5075376;28;8825;-68
2021/12/22 07:44:05;;;;;;;;;201.50;180.25;4.90;59.20;;;;;;5075033;28;8772;-67
2021/12/22 07:46:31;;;;;;;;;206.25;189.75;4.90;58.70;;;;;;5074921;28;8776;-70
2021/12/22 07:48:57;;;;;;;;;192.75;178.50;4.80;58.70;;;;;;5074938;28;8814;-64
2021/12/22 07:51:23;;;;;;;;;289.50;257.25;5.00;58.40;;;;;;5075134;28;8772;-71
2021/12/22 07:53:48;;;;;;;;;280.75;248.50;4.50;60.00;;;;;;5074843;28;8775;-65
2021/12/22 07:56:15;;;;;;;;;246.75;221.00;4.20;61.60;;;;;;5074798;28;8891;-67
2021/12/22 07:58:41;;;;;;;;;251.50;216.00;4.40;61.10;;;;;;5075026;28;8756;-65
2021/12/22 08:01:06;;;;;;;;;224.25;211.25;4.50;61.30;;;;;;5074999;28;9498;-67
2021/12/22 08:03:32;;;;;;;;;239.50;218.00;4.40;60.80;;;;;;5074973;28;8795;-66
2021/12/22 08:05:58;;;;;;;;;234.75;211.00;4.30;61.30;;;;;;5074641;28;9465;-65
2021/12/22 08:08:24;;;;;;;;;288.25;260.25;4.10;62.20;;;;;;5074146;28;8842;-68
2021/12/22 08:10:50;;;;;;;;;290.25;253.75;3.70;63.90;;;;;;5074643;28;8954;-66
2021/12/22 08:13:15;;;;;;;;;323.25;299.50;3.90;64.10;;;;;;5074202;28;8883;-67
2021/12/22 08:15:42;;;;;;;;;362.50;318.50;3.70;65.60;;;;;;5074401;28;8764;-68
2021/12/22 08:18:08;;;;;;;;;347.75;319.25;3.30;67.80;;;;;;5074582;28;9458;-68
2021/12/22 08:20:34;;;;;;;;;380.00;338.25;3.30;67.90;;;;;;5074848;28;8836;-68
2021/12/22 08:23:00;;;;;;;;;366.50;329.00;3.20;68.10;;;;;;5074464;28;8765;-64
2021/12/22 08:25:26;;;;;;;;;407.25;359.50;3.10;69.00;;;;;;5074632;28;8869;-68
2021/12/22 08:27:52;;;;;;;;;426.25;382.25;3.10;68.90;;;;;;5074643;28;8880;-68
2021/12/22 08:30:18;;;;;;;;;414.75;372.75;3.50;68.00;;;;;;5074550;28;8764;-68
2021/12/22 08:32:43;;;;;;;;;369.75;335.00;3.80;65.40;;;;;;5074283;28;8858;-66
2021/12/22 08:35:12;;;;;;;;;355.25;329.75;4.00;63.60;;;;;;5073757;28;8769;-65
2021/12/22 08:40:24;;;;;;;;;254.75;233.75;4.20;61.80;;;;;;5071558;28;8792;-67
2021/12/22 08:42:51;;;;;;;;;262.25;230.00;4.10;61.50;;;;;;5074135;28;8842;-67
2021/12/22 08:45:17;;;;;;;;;264.25;247.25;4.30;60.70;;;;;;5074198;28;8778;-67
2021/12/22 08:47:44;;;;;;;;;309.25;286.25;4.50;60.20;;;;;;5074062;28;8788;-68
2021/12/22 08:50:12;;;;;;;;;355.00;319.25;4.70;60.00;;;;;;5074445;28;8788;-67
2021/12/22 08:52:38;;;;;;;;;349.00;316.00;4.30;61.20;;;;;;5074394;28;8787;-67
2021/12/22 08:55:05;;;;;;;;;315.50;288.00;4.20;62.70;;;;;;5074156;28;8855;-67
2021/12/22 08:57:31;;;;;;;;;287.50;272.75;4.70;61.00;;;;;;5074338;28;8744;-68
2021/12/22 08:59:56;;;;;;;;;263.50;252.25;4.90;59.80;;;;;;5073773;28;8872;-66
2021/12/22 09:02:22;;;;;;;;;279.75;244.00;4.40;61.70;;;;;;5073853;28;8795;-68
2021/12/22 09:04:48;;;;;;;;;246.00;237.00;4.50;61.50;;;;;;5073960;28;8756;-68
2021/12/22 09:07:14;;;;;;;;;282.00;245.50;4.80;61.20;;;;;;5073813;28;8824;-68
2021/12/22 09:09:40;;;;;;;;;275.50;252.75;5.00;60.60;;;;;;5074232;28;8787;-67
2021/12/22 09:12:06;;;;;;;;;216.00;199.25;5.30;58.50;;;;;;5073963;28;8849;-69
2021/12/22 09:14:33;;;;;;;;;185.25;180.25;5.60;56.60;;;;;;5073901;28;8780;-67
2021/12/22 09:16:59;;;;;;;;;175.00;166.25;5.40;57.10;;;;;;5073925;28;8771;-67
2021/12/22 09:19:25;;;;;;;;;189.00;178.25;5.40;56.10;;;;;;5073897;28;8844;-67
2021/12/22 09:21:51;;;;;;;;;201.25;195.25;5.60;55.90;;;;;;5076873;28;8787;-69
2021/12/22 09:24:18;;;;;;;;;227.00;201.25;5.80;55.80;;;;;;5077990;28;8787;-67
2021/12/22 09:26:44;;;;;;;;;216.50;209.75;5.90;55.60;;;;;;5077702;28;8822;-65
2021/12/22 09:29:11;;;;;;;;;224.50;208.25;5.80;56.60;;;;;;5077303;28;8785;-66
2021/12/22 09:31:38;;;;;;;;;257.50;226.75;6.00;56.60;;;;;;5077660;28;8740;-67
2021/12/22 09:34:04;;;;;;;;;269.50;243.00;6.10;56.30;;;;;;5077806;28;9457;-67
2021/12/22 09:36:30;;;;;;;;;293.25;262.50;6.20;56.50;;;;;;5077755;28;8772;-69
2021/12/22 09:38:56;;;;;;;;;263.50;239.25;5.60;58.10;;;;;;5077097;28;8796;-67
2021/12/22 09:41:22;;;;;;;;;256.50;231.25;5.60;57.00;;;;;;5077285;28;8780;-65
2021/12/22 09:43:50;;;;;;;;;205.25;191.75;5.50;57.00;;;;;;5077283;28;8781;-69
2021/12/22 09:46:19;;;;;;;;;164.50;153.25;6.00;54.90;;;;;;5076765;28;8753;-68
2021/12/22 09:49:08;;;;;;;;;159.25;147.50;6.20;53.40;;;;;;5076954;28;8820;-68
2021/12/22 09:54:01;;;;;;;;;176.50;166.25;5.80;54.20;;;;;;5077232;28;8741;-67
2021/12/22 09:56:27;;;;;;;;;190.00;180.50;6.40;52.90;;;;;;5077086;28;8741;-68
2021/12/22 09:58:54;;;;;;;;;206.00;190.75;6.50;52.80;;;;;;5077339;28;8816;-68
2021/12/22 10:01:25;;;;;;;;;195.00;183.75;6.80;53.10;;;;;;5077042;28;8783;-66
2021/12/22 10:03:52;;;;;;;;;194.75;183.00;7.00;52.40;;;;;;5075891;28;8787;-67
2021/12/22 10:06:19;;;;;;;;;242.75;215.50;7.30;50.90;;;;;;5076732;28;8767;-74
2021/12/22 10:09:02;;;;;;;;;204.50;185.25;8.00;50.20;;;;;;5076565;28;8840;-72
2021/12/22 10:11:31;;;;;;;;;167.25;153.75;9.30;47.70;;;;;;5077185;28;8760;-68
2021/12/22 10:13:57;;;;;;;;;117.50;111.50;11.60;45.20;;;;;;5077091;28;9458;-65
2021/12/22 10:16:25;;;;;;;;;111.75;102.75;15.80;36.30;;;;;;5076557;28;8780;-67
2021/12/22 10:19:09;;;;;;;;;100.50;96.75;18.30;31.70;;;;;;5076850;28;8842;-72
2021/12/22 10:21:49;;;;;;;;;84.25;81.50;20.90;27.90;;;;;;5076729;28;8792;-67
2021/12/22 10:24:14;;;;;;;;;76.75;68.25;21.10;27.30;;;;;;5076118;28;8811;-69
2021/12/22 10:26:40;;;;;;;;;72.25;61.75;19.50;26.20;;;;;;5076490;28;8793;-69
2021/12/22 10:29:08;;;;;;;;;64.25;51.00;16.80;28.10;;;;;;5075987;28;8777;-67
2021/12/22 10:31:45;;;;;;;;;67.75;55.50;16.30;29.10;;;;;;5076083;28;8795;-67
2021/12/22 10:34:15;;;;;;;;;71.75;59.00;17.20;28.90;;;;;;5076250;28;8797;-69
2021/12/22 10:37:01;;;;;;;;;70.25;60.25;20.60;26.20;;;;;;5076526;28;8800;-65
2021/12/22 10:39:29;;;;;;;;;69.25;59.00;22.80;24.30;;;;;;5076122;28;8817;-68
2021/12/22 10:42:10;;;;;;;;;70.00;61.50;24.70;23.10;;;;;;5076171;28;8808;-67
2021/12/22 10:44:42;;;;;;;;;68.75;59.50;25.30;22.00;;;;;;5076563;28;8779;-65
2021/12/22 10:47:23;;;;;;;;;70.25;60.50;25.50;21.60;;;;;;5076517;28;8791;-66
2021/12/22 10:50:06;;;;;;;;;73.75;67.00;25.80;21.60;;;;;;5075883;28;8812;-64
2021/12/22 10:52:33;;;;;;;;;74.75;68.00;25.80;21.60;;;;;;5076123;28;8769;-65
2021/12/22 10:55:10;;;;;;;;;70.50;62.00;26.30;21.00;;;;;;5076246;28;8794;-66
2021/12/22 10:57:37;;;;;;;;;77.50;72.50;25.60;21.10;;;;;;5075942;28;8769;-65
2021/12/22 11:00:25;;;;;;;;;75.25;71.00;24.90;20.90;;;;;;5075799;28;8846;-63
2021/12/22 11:03:09;;;;;;;;;74.75;69.25;25.40;21.30;;;;;;5075885;28;8768;-65
2021/12/22 11:05:45;;;;;;;;;92.75;92.75;25.40;20.80;;;;;;5075960;28;9414;-65
2021/12/22 11:08:18;;;;;;;;;83.00;83.00;26.00;20.70;;;;;;5075642;28;8828;-64
2021/12/22 11:10:43;;;;;;;;;80.75;78.75;26.80;21.00;;;;;;5075529;28;8756;-64
2021/12/22 11:13:09;;;;;;;;;78.75;76.00;25.40;20.30;;;;;;5074537;28;8887;-67
2021/12/22 11:15:43;;;;;;;;;86.75;85.25;26.40;19.80;;;;;;5074514;28;9521;-70
2021/12/22 11:18:29;;;;;;;;;75.25;71.00;26.10;20.20;;;;;;5072345;28;8760;-66
2021/12/22 11:21:22;;;;;;;;;84.50;84.50;24.70;20.40;;;;;;5073061;28;8837;-68
2021/12/22 11:23:48;;;;;;;;;80.25;80.00;24.70;21.00;;;;;;5075511;28;8776;-68
2021/12/22 11:26:14;;;;;;;;;82.50;82.50;24.50;21.10;;;;;;5075310;28;8787;-69
2021/12/22 11:28:41;;;;;;;;;66.00;56.25;25.20;21.10;;;;;;5075258;28;8848;-67
2021/12/22 11:31:09;;;;;;;;;68.25;57.25;27.30;19.30;;;;;;5075613;28;8772;-66
2021/12/22 11:33:35;;;;;;;;;69.00;59.00;27.50;19.00;;;;;;5074313;28;8806;-72
2021/12/22 11:36:02;;;;;;;;;69.75;58.25;27.90;18.50;;;;;;5075257;28;8761;-71
2021/12/22 11:38:30;;;;;;;;;59.33;49.33;27.60;18.70;;;;;;5074739;28;9466;-75
2021/12/22 11:41:12;;;;;;;;;58.00;48.00;27.00;18.30;;;;;;5073929;28;8808;-76
2021/12/22 11:43:40;;;;;;;;;68.50;57.75;27.10;18.10;;;;;;5071187;28;8768;-75
2021/12/22 11:46:07;;;;;;;;;73.00;66.00;28.30;18.20;;;;;;5073718;28;8835;-73
2021/12/22 11:48:35;;;;;;;;;73.75;68.50;27.50;18.90;;;;;;5073609;28;8892;-73
2021/12/22 11:51:01;;;;;;;;;65.50;55.75;27.80;19.10;;;;;;5073719;28;8780;-72
2021/12/22 11:53:54;;;;;;;;;67.50;54.25;26.80;19.20;;;;;;5073626;28;8859;-70
2021/12/22 11:56:51;;;;;;;;;47.33;40.33;27.70;18.70;;;;;;5074854;28;8788;-68
2021/12/22 11:59:25;;;;;;;;;63.25;52.25;27.50;18.60;;;;;;5074654;28;8795;-71
2021/12/22 12:02:34;;;;;;;;;50.75;42.75;27.90;18.30;;;;;;5074864;28;8883;-71
2021/12/22 12:05:27;;;;;;;;;50.33;42.67;27.30;18.30;;;;;;5072595;28;8785;-69
2021/12/22 12:07:56;;;;;;;;;50.67;42.67;27.10;17.70;;;;;;5070990;28;8797;-70
2021/12/22 12:10:41;;;;;;;;;51.67;44.33;27.50;17.90;;;;;;5072483;28;8874;-68
2021/12/22 12:13:28;;;;;;;;;53.00;44.33;27.20;17.60;;;;;;5072355;28;8770;-72
2021/12/22 12:22:15;;;;;;;;;36.00;33.00;27.40;17.70;;;;;;5072348;28;8734;-69
2021/12/22 12:25:00;;;;;;;;;35.00;32.67;27.40;17.40;;;;;;5072244;28;8789;-68
2021/12/22 12:27:41;;;;;;;;;41.67;37.00;27.20;16.60;;;;;;5072075;28;8757;-69
2021/12/22 12:30:07;;;;;;;;;24.00;24.00;26.40;17.50;;;;;;5072127;28;8792;-67
2021/12/22 12:32:51;;;;;;;;;24.50;24.50;26.00;16.90;;;;;;5072109;28;11529;-69
2021/12/22 12:35:23;;;;;;;;;34.00;32.67;25.80;17.00;;;;;;5072686;28;11479;-69
2021/12/22 12:38:09;;;;;;;;;28.33;28.33;25.10;17.20;;;;;;5072630;28;8783;-67
2021/12/22 12:41:05;;;;;;;;;23.67;23.67;25.20;17.30;;;;;;5066648;28;9477;-68
2021/12/22 12:43:49;;;;;;;;;23.33;23.33;25.10;17.60;;;;;;5066572;28;11493;-69
2021/12/22 12:46:24;;;;;;;;;43.33;38.00;25.40;17.60;;;;;;5070589;28;11565;-67
2021/12/22 12:51:33;;;;;;;;;42.67;37.67;23.60;18.60;;;;;;5070896;28;8757;-68
2021/12/22 12:54:25;;;;;;;;;41.00;36.00;24.20;18.70;;;;;;5071008;28;8908;-69
2021/12/22 12:56:57;;;;;;;;;44.67;38.33;24.40;18.10;;;;;;5071908;28;8764;-67
2021/12/22 12:59:40;;;;;;;;;34.33;32.33;22.60;19.90;;;;;;5075844;28;8814;-68
2021/12/22 13:02:27;;;;;;;;;38.00;34.67;21.50;20.60;;;;;;5074581;28;8783;-68
2021/12/22 13:05:11;;;;;;;;;32.33;31.33;20.70;21.00;;;;;;5076531;28;8772;-64
2021/12/22 13:07:38;;;;;;;;;36.33;33.33;20.50;21.00;;;;;;5074535;28;8857;-63
2021/12/22 13:10:12;;;;;;;;;37.00;34.00;20.80;21.10;;;;;;5076680;28;8780;-64
2021/12/22 13:17:59;;;;;;;;;33.67;32.33;19.10;21.50;;;;;;5074468;28;8749;-64